Time;durP1;ratioP1;P1;durP2;ratioP2;P2;SDS_P1;SDS_P2;PMS_P1;PMS_P2;Temp;Humidity;BMP_temperature;BMP_pressure;BME280_temperature;BME280_humidity;BME280_pressure;Samples;Min_cycle;Max_cycle;Signal;HPM_P1;HPM_P2
2022/09/21 00:00:47;;;;;;;0.00;0.00;;;8.40;99.90;;;;;;5035825;28;20222;-72
2022/09/21 00:03:16;;;;;;;0.00;0.00;;;8.40;99.90;;;;;;5036176;28;20296;-71
2022/09/21 00:05:43;;;;;;;0.00;0.00;;;8.40;99.90;;;;;;5036123;28;20206;-71
2022/09/21 00:08:14;;;;;;;0.00;0.00;;;8.40;99.90;;;;;;5036225;28;20207;-72
2022/09/21 00:10:41;;;;;;;0.00;0.00;;;8.40;99.90;;;;;;5036998;28;20265;-71
2022/09/21 00:13:12;;;;;;;0.00;0.00;;;8.40;99.90;;;;;;5036315;28;20689;-71
2022/09/21 00:15:40;;;;;;;0.00;0.00;;;8.30;99.90;;;;;;5036594;28;20699;-71
2022/09/21 00:18:09;;;;;;;0.00;0.00;;;8.30;99.90;;;;;;5036580;28;20202;-71
2022/09/21 00:20:42;;;;;;;0.00;0.00;;;8.30;99.90;;;;;;5035902;28;20230;-70
2022/09/21 00:23:10;;;;;;;0.00;0.00;;;8.30;99.90;;;;;;5036285;28;20220;-71
2022/09/21 00:25:37;;;;;;;0.00;0.00;;;8.30;99.90;;;;;;5036596;28;20206;-71
2022/09/21 00:28:05;;;;;;;0.00;0.00;;;8.30;99.90;;;;;;5036466;28;20198;-72
2022/09/21 00:30:34;;;;;;;0.00;0.00;;;8.30;99.90;;;;;;5044413;28;20226;-71
2022/09/21 00:33:02;;;;;;;0.00;0.00;;;8.20;99.90;;;;;;5046653;28;20198;-73
2022/09/21 00:35:29;;;;;;;0.00;0.00;;;8.20;99.90;;;;;;5035215;28;20238;-72
2022/09/21 00:38:01;;;;;;;0.00;0.00;;;8.20;99.90;;;;;;5035285;28;20696;-73
2022/09/21 00:40:29;;;;;;;0.00;0.00;;;8.20;99.90;;;;;;5035104;28;20779;-72
2022/09/21 00:43:11;;;;;;;0.00;0.00;;;8.20;99.90;;;;;;5035488;28;20225;-71
2022/09/21 00:45:41;;;;;;;0.00;0.00;;;8.20;99.90;;;;;;5035307;28;20264;-72
2022/09/21 00:48:09;;;;;;;0.00;0.00;;;8.20;99.90;;;;;;5035721;28;20238;-71
2022/09/21 00:50:42;;;;;;;0.00;0.00;;;8.20;99.90;;;;;;5035422;28;20280;-71
2022/09/21 00:53:10;;;;;;;0.00;0.00;;;8.20;99.90;;;;;;5035422;28;20198;-70
2022/09/21 00:55:42;;;;;;;0.00;0.00;;;8.10;99.90;;;;;;5034804;28;20257;-71
2022/09/21 00:58:14;;;;;;;0.00;0.00;;;8.10;99.90;;;;;;5035684;28;20214;-72
2022/09/21 01:00:43;;;;;;;0.00;0.00;;;8.10;99.90;;;;;;5035894;28;20272;-72
2022/09/21 01:03:12;;;;;;;0.00;0.00;;;8.10;99.90;;;;;;5036091;28;20605;-73
2022/09/21 01:05:40;;;;;;;0.00;0.00;;;8.10;99.90;;;;;;5036154;28;20245;-75
2022/09/21 01:08:10;;;;;;;0.00;0.00;;;8.10;99.90;;;;;;5035035;28;20559;-74
2022/09/21 01:10:51;;;;;;;0.00;0.00;;;8.10;99.90;;;;;;5034786;28;20587;-73
2022/09/21 01:13:30;;;;;;;0.00;0.00;;;8.00;99.90;;;;;;5035181;28;20203;-73
2022/09/21 01:16:07;;;;;;;0.00;0.00;;;8.00;99.90;;;;;;5034674;28;20264;-73
2022/09/21 01:18:40;;;;;;;0.00;0.00;;;8.00;99.90;;;;;;5034587;28;20248;-73
2022/09/21 01:21:18;;;;;;;0.00;0.00;;;8.00;99.90;;;;;;5034292;28;20282;-74
2022/09/21 01:24:08;;;;;;;0.00;0.00;;;8.00;99.90;;;;;;5034922;28;20588;-73
2022/09/21 01:26:54;;;;;;;0.00;0.00;;;8.00;99.90;;;;;;5034673;28;20665;-73
2022/09/21 01:29:27;;;;;;;0.00;0.00;;;7.90;99.90;;;;;;5034103;28;20218;-74
2022/09/21 01:32:01;;;;;;;0.00;0.00;;;7.90;99.90;;;;;;5034866;28;20198;-73
2022/09/21 01:34:34;;;;;;;0.00;0.00;;;7.90;99.90;;;;;;5034596;28;20209;-74
2022/09/21 01:37:07;;;;;;;0.00;0.00;;;7.90;99.90;;;;;;5034459;28;20202;-74
2022/09/21 01:39:36;;;;;;;0.00;0.00;;;7.90;99.90;;;;;;5034004;28;20273;-74
2022/09/21 01:42:06;;;;;;;0.00;0.00;;;7.90;99.90;;;;;;5033942;28;20222;-74
2022/09/21 01:44:39;;;;;;;0.00;0.00;;;7.90;99.90;;;;;;5034608;28;20237;-73
2022/09/21 01:47:11;;;;;;;0.00;0.00;;;7.90;99.90;;;;;;5034250;28;20267;-73
2022/09/21 01:49:43;;;;;;;0.00;0.00;;;7.90;99.90;;;;;;5033754;28;20226;-74
2022/09/21 01:52:14;;;;;;;0.00;0.00;;;7.90;99.90;;;;;;5033892;28;20689;-74
2022/09/21 01:54:47;;;;;;;0.00;0.00;;;7.90;99.90;;;;;;5034598;28;20703;-73
2022/09/21 01:57:22;;;;;;;0.00;0.00;;;7.80;99.90;;;;;;5034149;28;20198;-73
2022/09/21 01:59:54;;;;;;;0.00;0.00;;;7.80;99.90;;;;;;5033687;28;20755;-73
2022/09/21 02:02:27;;;;;;;0.00;0.00;;;7.80;99.90;;;;;;5034172;28;20218;-73
2022/09/21 02:04:55;;;;;;;0.00;0.00;;;7.80;99.90;;;;;;5033987;28;20213;-71
2022/09/21 02:07:24;;;;;;;0.00;0.00;;;7.80;99.90;;;;;;5033847;28;20206;-71
2022/09/21 02:09:53;;;;;;;0.00;0.00;;;7.80;99.90;;;;;;5033651;28;20252;-73
2022/09/21 02:12:21;;;;;;;0.00;0.00;;;7.70;99.90;;;;;;5033961;28;20248;-73
2022/09/21 02:20:25;;;;;;;0.00;0.00;;;7.70;99.90;;;;;;5096806;22;20242;-89
2022/09/21 02:23:04;;;;;;;0.00;0.00;;;7.70;99.90;;;;;;5033127;28;20211;-89
2022/09/21 02:25:41;;;;;;;0.00;0.00;;;7.60;99.90;;;;;;5025747;28;20253;-90
2022/09/21 02:28:18;;;;;;;0.00;0.00;;;7.60;99.90;;;;;;5018828;28;20199;-90
2022/09/21 02:30:54;;;;;;;0.00;0.00;;;7.60;99.90;;;;;;5017269;28;20739;-91
2022/09/21 02:33:29;;;;;;;0.00;0.00;;;7.50;99.90;;;;;;5018600;28;20183;-90
2022/09/21 02:36:04;;;;;;;0.00;0.00;;;7.50;99.90;;;;;;5016788;28;20198;-89
2022/09/21 02:38:39;;;;;;;0.00;0.00;;;7.50;99.90;;;;;;5017830;28;20194;-90
2022/09/21 02:41:14;;;;;;;0.00;0.00;;;7.50;99.90;;;;;;5024774;28;20253;-89
2022/09/21 02:43:47;;;;;;;0.00;0.00;;;7.50;99.90;;;;;;5021704;28;20226;-90
2022/09/21 02:46:22;;;;;;;0.00;0.00;;;7.50;99.90;;;;;;5020415;28;20192;-91
2022/09/21 02:48:53;;;;;;;0.00;0.00;;;7.50;99.90;;;;;;5032010;28;20195;-89
2022/09/21 02:51:26;;;;;;;0.00;0.00;;;7.40;99.90;;;;;;5036670;28;20220;-90
2022/09/21 02:53:54;;;;;;;0.00;0.00;;;7.40;99.90;;;;;;5036832;28;20215;-87
2022/09/21 02:56:23;;;;;;;0.00;0.00;;;7.40;99.90;;;;;;5039024;28;20198;-86
2022/09/21 02:58:55;;;;;;;0.00;0.00;;;7.40;99.90;;;;;;5038826;28;20175;-86
2022/09/21 03:01:26;;;;;;;0.00;0.00;;;7.40;99.90;;;;;;5038623;28;20223;-91
2022/09/21 03:03:54;;;;;;;0.00;0.00;;;7.40;99.90;;;;;;5038615;28;20231;-87
2022/09/21 03:06:22;;;;;;;0.00;0.00;;;7.40;99.90;;;;;;5038582;28;20209;-89
2022/09/21 03:08:50;;;;;;;0.00;0.00;;;7.40;99.90;;;;;;5038607;28;20210;-89
2022/09/21 03:11:18;;;;;;;0.00;0.00;;;7.40;99.90;;;;;;5038601;28;20230;-89
2022/09/21 03:13:46;;;;;;;0.00;0.00;;;7.40;99.90;;;;;;5037665;28;20180;-87
2022/09/21 03:16:14;;;;;;;0.00;0.00;;;7.40;99.90;;;;;;5028186;28;20234;-88
2022/09/21 03:18:43;;;;;;;0.00;0.00;;;7.40;99.90;;;;;;5034941;28;20193;-88
2022/09/21 03:21:12;;;;;;;0.00;0.00;;;7.30;99.90;;;;;;5038319;28;20206;-90
2022/09/21 03:23:40;;;;;;;0.00;0.00;;;7.40;99.90;;;;;;5038580;28;20210;-89
2022/09/21 03:26:08;;;;;;;0.00;0.00;;;7.40;99.90;;;;;;5038642;28;20195;-87
2022/09/21 03:28:36;;;;;;;0.00;0.00;;;7.40;99.90;;;;;;5038211;28;20187;-88
2022/09/21 03:31:05;;;;;;;0.00;0.00;;;7.40;99.90;;;;;;5038372;28;20199;-86
2022/09/21 03:33:33;;;;;;;0.00;0.00;;;7.40;99.90;;;;;;5038248;28;20206;-85
2022/09/21 03:36:03;;;;;;;0.00;0.00;;;7.40;99.90;;;;;;5037277;28;20187;-89
2022/09/21 03:38:33;;;;;;;0.00;0.00;;;7.40;99.90;;;;;;5019691;28;20207;-86
2022/09/21 03:41:01;;;;;;;0.00;0.00;;;7.40;99.90;;;;;;5017677;28;20234;-89
2022/09/21 03:43:29;;;;;;;0.00;0.00;;;7.40;99.90;;;;;;5017819;28;20322;-90
2022/09/21 03:45:57;;;;;;;0.00;0.00;;;7.50;99.90;;;;;;5017982;28;20318;-89
2022/09/21 03:48:25;;;;;;;0.00;0.00;;;7.60;99.90;;;;;;5017640;28;20294;-89
2022/09/21 03:50:53;;;;;;;0.00;0.00;;;7.70;99.90;;;;;;5017666;28;20223;-88
2022/09/21 03:53:22;;;;;;;0.00;0.00;;;7.70;99.90;;;;;;5017470;28;20191;-89
2022/09/21 03:55:50;;;;;;;0.00;0.00;;;7.70;99.90;;;;;;5018338;28;20203;-89
2022/09/21 03:58:18;;;;;;;0.00;0.00;;;7.60;99.90;;;;;;5007105;28;20219;-90
2022/09/21 04:00:46;;;;;;;0.00;0.00;;;7.50;99.90;;;;;;5017134;28;20231;-89
2022/09/21 04:03:16;;;;;;;0.00;0.00;;;7.50;99.90;;;;;;5017518;28;20222;-89
2022/09/21 04:05:43;;;;;;;0.00;0.00;;;7.50;99.90;;;;;;5019458;28;20199;-90
2022/09/21 04:08:11;;;;;;;0.00;0.00;;;7.50;99.90;;;;;;5021709;28;20207;-89
2022/09/21 04:10:42;;;;;;;0.00;0.00;;;7.50;99.90;;;;;;5022022;28;20215;-89
2022/09/21 04:13:12;;;;;;;0.00;0.00;;;7.40;99.90;;;;;;5021836;28;20195;-89
2022/09/21 04:15:39;;;;;;;0.00;0.00;;;7.40;99.90;;;;;;5021876;28;20234;-90
2022/09/21 04:18:07;;;;;;;0.00;0.00;;;7.40;99.90;;;;;;5021777;28;20644;-89
2022/09/21 04:20:35;;;;;;;0.00;0.00;;;7.40;99.90;;;;;;5023476;28;20588;-90
2022/09/21 04:23:03;;;;;;;0.00;0.00;;;7.40;99.90;;;;;;5022748;28;20218;-91
2022/09/21 04:25:32;;;;;;;0.00;0.00;;;7.40;99.90;;;;;;5024010;28;20195;-90
2022/09/21 04:28:02;;;;;;;0.00;0.00;;;7.40;99.90;;;;;;5032111;28;20199;-91
2022/09/21 04:30:29;;;;;;;0.00;0.00;;;7.40;99.90;;;;;;5030798;28;20246;-91
2022/09/21 04:33:04;;;;;;;0.00;0.00;;;7.40;99.90;;;;;;5023155;28;20215;-89
2022/09/21 04:35:35;;;;;;;0.00;0.00;;;7.40;99.90;;;;;;5023603;28;20246;-90
2022/09/21 04:38:03;;;;;;;0.00;0.00;;;7.40;99.90;;;;;;5023775;28;20554;-91
2022/09/21 04:40:31;;;;;;;0.00;0.00;;;7.30;99.90;;;;;;5021542;28;20230;-89
2022/09/21 04:43:01;;;;;;;0.00;0.00;;;7.30;99.90;;;;;;5020863;28;20213;-90
2022/09/21 04:45:29;;;;;;;0.00;0.00;;;7.30;99.90;;;;;;5021904;28;20215;-90
2022/09/21 04:47:57;;;;;;;0.00;0.00;;;7.30;99.90;;;;;;5022537;28;20233;-89
2022/09/21 04:50:25;;;;;;;0.00;0.00;;;7.30;99.90;;;;;;5021041;28;20226;-90
2022/09/21 04:52:53;;;;;;;0.00;0.00;;;7.30;99.90;;;;;;5007472;28;20270;-89
2022/09/21 04:55:23;;;;;;;0.00;0.00;;;7.30;99.90;;;;;;4998948;28;20215;-91
2022/09/21 04:57:53;;;;;;;0.00;0.00;;;7.20;99.90;;;;;;5016203;28;20207;-91
2022/09/21 05:00:22;;;;;;;0.00;0.00;;;7.20;99.90;;;;;;5021940;28;20273;-91
2022/09/21 05:02:51;;;;;;;0.00;0.00;;;7.20;99.90;;;;;;5021704;28;20628;-90
2022/09/21 05:05:19;;;;;;;0.00;0.00;;;7.20;99.90;;;;;;5022087;28;20215;-91
2022/09/21 05:07:47;;;;;;;0.00;0.00;;;7.20;99.90;;;;;;5022278;28;20203;-90
2022/09/21 05:10:15;;;;;;;0.00;0.00;;;7.20;99.90;;;;;;5023493;28;20644;-91
2022/09/21 05:12:45;;;;;;;0.00;0.00;;;7.20;99.90;;;;;;5022332;28;20211;-90
2022/09/21 05:15:13;;;;;;;0.00;0.00;;;7.10;99.90;;;;;;5021773;28;20203;-89
2022/09/21 05:17:43;;;;;;;0.00;0.00;;;7.10;99.90;;;;;;5019407;28;20211;-89
2022/09/21 05:20:11;;;;;;;0.00;0.00;;;7.10;99.90;;;;;;5025482;28;20612;-89
2022/09/21 05:22:39;;;;;;;0.00;0.00;;;7.10;99.90;;;;;;5021348;28;20277;-89
2022/09/21 05:25:09;;;;;;;0.00;0.00;;;7.10;99.90;;;;;;5021285;28;20223;-89
2022/09/21 05:27:37;;;;;;;0.00;0.00;;;7.10;99.90;;;;;;5008105;28;20214;-90
2022/09/21 05:30:06;;;;;;;0.00;0.00;;;7.10;99.90;;;;;;5027076;28;20219;-88
2022/09/21 05:32:45;;;;;;;0.00;0.00;;;7.10;99.90;;;;;;5035345;28;20210;-90
2022/09/21 05:35:22;;;;;;;0.00;0.00;;;7.10;99.90;;;;;;5021781;28;20202;-89
2022/09/21 05:37:56;;;;;;;0.00;0.00;;;7.10;99.90;;;;;;5020045;28;20310;-89
2022/09/21 05:40:25;;;;;;;0.00;0.00;;;7.10;99.90;;;;;;5021570;28;20230;-89
2022/09/21 05:42:53;;;;;;;0.00;0.00;;;7.10;99.90;;;;;;5022264;28;20210;-89
2022/09/21 05:45:22;;;;;;;0.00;0.00;;;7.10;99.90;;;;;;5021141;28;20603;-90
2022/09/21 05:48:00;;;;;;;0.00;0.00;;;7.20;99.90;;;;;;5021521;28;20199;-89
2022/09/21 05:50:40;;;;;;;0.00;0.00;;;7.20;99.90;;;;;;5021410;28;20237;-89
2022/09/21 05:53:22;;;;;;;0.00;0.00;;;7.20;99.90;;;;;;5021224;28;20202;-89
2022/09/21 05:55:56;;;;;;;0.00;0.00;;;7.20;99.90;;;;;;5020795;28;20190;-89
2022/09/21 05:58:35;;;;;;;0.00;0.00;;;7.30;99.90;;;;;;5020081;28;20199;-88
2022/09/21 06:01:24;;;;;;;0.00;0.00;;;7.30;99.90;;;;;;5021272;28;20222;-88
2022/09/21 06:03:55;;;;;;;0.00;0.00;;;7.30;99.90;;;;;;5023814;28;20238;-88
2022/09/21 06:06:23;;;;;;;0.00;0.00;;;7.40;99.90;;;;;;5034461;28;20205;-90
2022/09/21 06:08:51;;;;;;;0.00;0.00;;;7.40;99.90;;;;;;5026573;28;20231;-89
2022/09/21 06:11:19;;;;;;;0.00;0.00;;;7.50;99.90;;;;;;5035683;28;20223;-89
2022/09/21 06:13:47;;;;;;;0.00;0.00;;;7.60;99.90;;;;;;5025446;28;20580;-88
2022/09/21 06:16:15;;;;;;;0.00;0.00;;;7.60;99.90;;;;;;5031974;28;20245;-89
2022/09/21 06:18:43;;;;;;;0.00;0.00;;;7.70;99.90;;;;;;5034024;28;20210;-88
2022/09/21 06:21:12;;;;;;;0.00;0.00;;;7.70;99.90;;;;;;5030173;28;20226;-89
2022/09/21 06:23:40;;;;;;;0.00;0.00;;;7.80;99.90;;;;;;5029736;28;20195;-90
2022/09/21 06:26:10;;;;;;;0.00;0.00;;;7.90;99.90;;;;;;5033042;28;20218;-90
2022/09/21 06:28:38;;;;;;;0.00;0.00;;;8.00;99.90;;;;;;5031464;28;20236;-90
2022/09/21 06:31:06;;;;;;;0.00;0.00;;;8.10;99.90;;;;;;5023683;28;20256;-90
2022/09/21 06:33:37;;;;;;;0.00;0.00;;;8.10;99.90;;;;;;5040700;28;20191;-88
2022/09/21 06:36:07;;;;;;;0.00;0.00;;;8.20;99.90;;;;;;5044072;28;20197;-89
2022/09/21 06:38:37;;;;;;;0.00;0.00;;;8.30;99.90;;;;;;5039808;28;20210;-89
2022/09/21 06:41:05;;;;;;;0.00;0.00;;;8.40;99.90;;;;;;5025442;28;20229;-88
2022/09/21 06:43:36;;;;;;;0.00;0.00;;;8.60;99.90;;;;;;5024763;28;20202;-90
2022/09/21 06:46:05;;;;;;;0.00;0.00;;;8.70;99.90;;;;;;5030844;28;20232;-91
2022/09/21 06:48:34;;;;;;;0.00;0.00;;;8.80;99.90;;;;;;5023467;28;20229;-90
2022/09/21 06:51:03;;;;;;;0.00;0.00;;;8.90;99.90;;;;;;5025146;28;20219;-89
2022/09/21 06:53:33;;;;;;;0.00;0.00;;;9.00;99.90;;;;;;5024109;28;20209;-89
2022/09/21 06:56:05;;;;;;;0.00;0.00;;;9.10;99.90;;;;;;5039726;28;20246;-90
2022/09/21 06:58:34;;;;;;;0.00;0.00;;;9.20;99.90;;;;;;5039462;28;20198;-90
2022/09/21 07:01:07;;;;;;;0.00;0.00;;;9.30;99.90;;;;;;5031626;28;20633;-91
2022/09/21 07:03:35;;;;;;;0.00;0.00;;;9.40;99.90;;;;;;5022813;28;20321;-90
2022/09/21 07:06:03;;;;;;;0.00;0.00;;;9.50;99.90;;;;;;5019374;28;20215;-90
2022/09/21 07:08:31;;;;;;;0.00;0.00;;;9.60;99.90;;;;;;5019133;28;20286;-90
2022/09/21 07:11:22;;;;;;;0.00;0.00;;;9.70;99.90;;;;;;5007355;28;20953;-90
2022/09/21 07:13:51;;;;;;;0.00;0.00;;;9.80;99.90;;;;;;4999879;28;20476;-91
2022/09/21 07:16:20;;;;;;;0.00;0.00;;;9.90;99.90;;;;;;4998354;28;20205;-94
2022/09/21 07:18:48;;;;;;;0.00;0.00;;;10.00;99.90;;;;;;4997939;28;20215;-89
2022/09/21 07:21:16;;;;;;;0.00;0.00;;;10.10;99.90;;;;;;5007139;28;20248;-91
2022/09/21 07:23:44;;;;;;;0.00;0.00;;;10.20;99.90;;;;;;5024929;28;20207;-90
2022/09/21 07:26:13;;;;;;;0.00;0.00;;;10.30;99.90;;;;;;5034981;28;20210;-91
2022/09/21 07:28:43;;;;;;;0.00;0.00;;;10.40;99.90;;;;;;5040651;28;20468;-90
2022/09/21 07:31:13;;;;;;;0.00;0.00;;;10.40;99.90;;;;;;5040920;28;20229;-91
2022/09/21 07:33:42;;;;;;;0.00;0.00;;;10.50;99.90;;;;;;5041034;28;20509;-90
2022/09/21 07:36:11;;;;;;;0.00;0.00;;;10.60;99.90;;;;;;5044778;28;20477;-90
2022/09/21 07:38:41;;;;;;;0.00;0.00;;;10.70;99.90;;;;;;5055544;28;20429;-90
2022/09/21 07:41:11;;;;;;;0.00;0.00;;;10.80;99.90;;;;;;5043182;28;20452;-90
2022/09/21 07:43:40;;;;;;;0.00;0.00;;;10.90;99.90;;;;;;5043540;28;20457;-88
2022/09/21 07:46:11;;;;;;;0.00;0.00;;;10.90;99.90;;;;;;5042993;28;20497;-89
2022/09/21 07:48:40;;;;;;;0.00;0.00;;;11.00;99.90;;;;;;5043838;28;20449;-91
2022/09/21 07:51:09;;;;;;;0.00;0.00;;;11.10;99.90;;;;;;5044213;28;20473;-91
2022/09/21 07:53:39;;;;;;;0.00;0.00;;;11.20;99.90;;;;;;5043559;28;20492;-88
2022/09/21 07:56:09;;;;;;;0.00;0.00;;;11.20;99.90;;;;;;5043590;28;20480;-88
2022/09/21 08:01:26;;;;;;;0.00;0.00;;;11.40;99.90;;;;;;5052300;28;20461;-92
2022/09/21 08:03:57;;;;;;;0.00;0.00;;;11.50;99.90;;;;;;5057929;28;20437;-92
2022/09/21 08:06:26;;;;;;;0.00;0.00;;;11.60;99.90;;;;;;5056312;28;20485;-92
2022/09/21 08:08:56;;;;;;;0.00;0.00;;;11.70;99.90;;;;;;5047785;28;20441;-92
2022/09/21 08:11:27;;;;;;;0.00;0.00;;;11.80;99.90;;;;;;5047631;28;20457;-91
2022/09/21 08:13:57;;;;;;;0.00;0.00;;;11.90;99.90;;;;;;5048600;28;20811;-91
2022/09/21 08:16:27;;;;;;;0.00;0.00;;;12.00;99.90;;;;;;5047208;28;20485;-90
2022/09/21 08:18:56;;;;;;;0.00;0.00;;;12.10;99.90;;;;;;5044787;28;20461;-91
2022/09/21 08:21:24;;;;;;;0.00;0.00;;;12.20;99.90;;;;;;5046092;28;20492;-90
2022/09/21 08:23:52;;;;;;;0.00;0.00;;;12.30;99.90;;;;;;5045102;28;20464;-89
2022/09/21 08:26:21;;;;;;;0.00;0.00;;;12.40;99.90;;;;;;5045790;28;20477;-90
2022/09/21 08:28:57;;;;;;;0.00;0.00;;;12.50;99.90;;;;;;5043908;28;20911;-90
2022/09/21 08:31:29;;;;;;;0.00;0.00;;;12.60;99.90;;;;;;5043902;28;20484;-91
2022/09/21 08:34:01;;;;;;;0.00;0.00;;;12.80;99.90;;;;;;5043410;28;20958;-90
2022/09/21 08:36:29;;;;;;;0.00;0.00;;;12.80;99.90;;;;;;5042961;28;20536;-90
2022/09/21 08:38:57;;;;;;;0.00;0.00;;;12.90;99.90;;;;;;5043851;28;20441;-90
2022/09/21 08:42:11;;;;;;;0.00;0.00;;;13.00;99.90;;;;;;5056636;28;20468;-90
2022/09/21 08:44:41;;;;;;;0.00;0.00;;;13.10;99.90;;;;;;4981637;28;20524;-90
2022/09/21 08:47:33;;;;;;;0.00;0.00;;;13.20;99.90;;;;;;5030408;28;20485;-90
2022/09/21 08:50:14;;;;;;;0.00;0.00;;;13.20;99.90;;;;;;5043996;28;20473;-92
2022/09/21 08:52:43;;;;;;;0.00;0.00;;;13.30;99.90;;;;;;5044368;28;20449;-91
2022/09/21 08:55:18;;;;;;;0.00;0.00;;;13.40;99.90;;;;;;5045136;28;20536;-90
2022/09/21 08:57:46;;;;;;;0.00;0.00;;;13.50;99.90;;;;;;5046728;28;20449;-90
2022/09/21 09:00:16;;;;;;;0.00;0.00;;;13.60;99.90;;;;;;5043174;28;20559;-91
2022/09/21 09:03:13;;;;;;;0.00;0.00;;;13.60;99.90;;;;;;5042684;28;20445;-91
2022/09/21 09:05:49;;;;;;;0.00;0.00;;;13.70;99.90;;;;;;5043535;28;20998;-90
2022/09/21 09:08:40;;;;;;;0.00;0.00;;;13.80;99.90;;;;;;5045377;28;20476;-90
2022/09/21 09:11:21;;;;;;;0.00;0.00;;;13.80;99.90;;;;;;5043429;28;20489;-90
2022/09/21 09:14:14;;;;;;;0.00;0.00;;;13.90;99.90;;;;;;5042231;28;20444;-92
2022/09/21 09:16:51;;;;;;;0.00;0.00;;;14.00;99.90;;;;;;5042982;28;20417;-91
2022/09/21 09:19:28;;;;;;;0.00;0.00;;;14.10;99.90;;;;;;5044063;28;20421;-91
2022/09/21 09:21:56;;;;;;;0.00;0.00;;;14.20;99.90;;;;;;5043973;28;20456;-90
2022/09/21 09:24:32;;;;;;;0.00;0.00;;;14.20;99.90;;;;;;5042141;28;20468;-91
2022/09/21 09:27:04;;;;;;;0.00;0.00;;;14.30;99.90;;;;;;5023586;28;20776;-90
2022/09/21 09:29:41;;;;;;;0.00;0.00;;;14.50;99.90;;;;;;5024118;28;20446;-91
2022/09/21 09:32:15;;;;;;;0.00;0.00;;;14.60;99.90;;;;;;5023526;28;20423;-89
2022/09/21 09:34:52;;;;;;;0.00;0.00;;;14.70;99.90;;;;;;5022628;28;20457;-91
2022/09/21 09:37:27;;;;;;;0.00;0.00;;;14.70;99.90;;;;;;5019020;28;20564;-89
2022/09/21 09:39:57;;;;;;;0.00;0.00;;;14.90;99.90;;;;;;5019682;28;20458;-92
2022/09/21 09:42:42;;;;;;;0.00;0.00;;;15.00;99.90;;;;;;5029551;28;20761;-91
2022/09/21 09:45:25;;;;;;;0.00;0.00;;;15.10;99.90;;;;;;5038024;28;20478;-91
2022/09/21 09:48:07;;;;;;;0.00;0.00;;;15.10;99.90;;;;;;5027859;28;20494;-91
2022/09/21 09:50:38;;;;;;;0.00;0.00;;;15.10;99.90;;;;;;5024374;28;20593;-90
2022/09/21 09:53:11;;;;;;;0.00;0.00;;;15.20;99.90;;;;;;5025059;28;20453;-91
2022/09/21 09:55:42;;;;;;;0.00;0.00;;;15.20;99.90;;;;;;5023783;28;20453;-89
2022/09/21 09:58:20;;;;;;;0.00;0.00;;;15.40;99.90;;;;;;5023648;28;20533;-90
2022/09/21 10:00:51;;;;;;;0.00;0.00;;;15.40;99.90;;;;;;5023866;28;20520;-89
2022/09/21 10:03:21;;;;;;;0.00;0.00;;;15.50;99.90;;;;;;5024798;28;20465;-90
2022/09/21 10:05:51;;;;;;;0.00;0.00;;;15.50;99.90;;;;;;5023976;28;20454;-92
2022/09/21 10:08:45;;;;;;;0.00;0.00;;;15.40;99.90;;;;;;5022981;28;20453;-90
2022/09/21 10:11:15;;;;;;;0.00;0.00;;;15.40;99.90;;;;;;5021807;28;20478;-91
2022/09/21 10:13:45;;;;;;;0.00;0.00;;;15.30;99.90;;;;;;5022344;28;20454;-91
2022/09/21 10:16:15;;;;;;;0.00;0.00;;;15.20;99.90;;;;;;5022574;28;20441;-90
2022/09/21 10:18:47;;;;;;;0.00;0.00;;;15.10;99.90;;;;;;5023019;28;20469;-89
2022/09/21 10:21:21;;;;;;;0.00;0.00;;;15.10;99.90;;;;;;5022289;28;20511;-89
2022/09/21 10:23:52;;;;;;;0.00;0.00;;;15.10;99.90;;;;;;5023415;28;20442;-90
2022/09/21 10:26:21;;;;;;;0.00;0.00;;;15.20;99.90;;;;;;5022748;28;20979;-90
2022/09/21 10:28:58;;;;;;;0.00;0.00;;;15.30;99.90;;;;;;5023962;28;20819;-91
2022/09/21 10:31:30;;;;;;;0.00;0.00;;;15.40;99.90;;;;;;5022030;28;20489;-90
2022/09/21 10:34:14;;;;;;;0.00;0.00;;;15.50;99.90;;;;;;5021596;28;20486;-90
2022/09/21 10:36:51;;;;;;;0.00;0.00;;;15.60;99.90;;;;;;5002620;28;20875;-90
2022/09/21 10:39:21;;;;;;;0.00;0.00;;;15.70;99.90;;;;;;5002808;28;20441;-90
2022/09/21 10:41:55;;;;;;;0.00;0.00;;;15.70;99.90;;;;;;5015554;28;20484;-90
2022/09/21 10:44:28;;;;;;;0.00;0.00;;;15.80;99.90;;;;;;5030127;28;20441;-90
2022/09/21 10:47:13;;;;;;;0.00;0.00;;;15.90;99.90;;;;;;5017716;28;20976;-90
2022/09/21 10:49:47;;;;;;;0.00;0.00;;;15.90;99.90;;;;;;5037746;28;20540;-88
2022/09/21 10:52:19;;;;;;;0.00;0.00;;;15.90;99.90;;;;;;5001348;28;20477;-90
2022/09/21 10:54:51;;;;;;;0.00;0.00;;;16.00;99.90;;;;;;5008489;28;20447;-89
2022/09/21 10:57:21;;;;;;;0.00;0.00;;;16.00;99.90;;;;;;5020902;28;20513;-89
2022/09/21 10:59:49;;;;;;;0.00;0.00;;;16.10;99.90;;;;;;5018774;28;20481;-90
2022/09/21 11:02:34;;;;;;;0.00;0.00;;;16.20;99.90;;;;;;5012277;28;20829;-89
2022/09/21 11:05:09;;;;;;;0.00;0.00;;;16.40;99.90;;;;;;5021624;28;20980;-91
2022/09/21 11:07:45;;;;;;;0.00;0.00;;;16.50;99.90;;;;;;5021095;28;20508;-91
2022/09/21 11:10:19;;;;;;;0.00;0.00;;;16.60;99.90;;;;;;5024689;28;20536;-91
2022/09/21 11:13:00;;;;;;;0.00;0.00;;;16.70;99.90;;;;;;5035204;28;20490;-91
2022/09/21 11:15:40;;;;;;;0.00;0.00;;;16.90;99.90;;;;;;5031865;28;20458;-91
2022/09/21 11:18:18;;;;;;;0.00;0.00;;;17.00;99.90;;;;;;5022317;28;20432;-90
2022/09/21 11:20:49;;;;;;;0.00;0.00;;;16.90;99.90;;;;;;5031907;28;20480;-91
2022/09/21 11:23:39;;;;;;;0.00;0.00;;;17.00;99.90;;;;;;5023654;28;20446;-91
2022/09/21 11:26:15;;;;;;;0.00;0.00;;;17.00;99.90;;;;;;5028484;28;20445;-90
2022/09/21 11:28:49;;;;;;;0.00;0.00;;;17.00;99.90;;;;;;5024415;28;20478;-89
2022/09/21 11:31:43;;;;;;;0.00;0.00;;;17.00;99.90;;;;;;5022947;28;20969;-89
2022/09/21 11:34:34;;;;;;;0.00;0.00;;;17.00;99.90;;;;;;5018087;28;20459;-92
2022/09/21 11:37:13;;;;;;;0.00;0.00;;;16.90;99.90;;;;;;5020593;28;20470;-91
2022/09/21 11:40:03;;;;;;;0.00;0.00;;;17.00;99.90;;;;;;5020631;28;20488;-90
2022/09/21 11:42:53;;;;;;;0.00;0.00;;;17.00;99.90;;;;;;5021749;28;20447;-90
2022/09/21 11:45:41;;;;;;;0.00;0.00;;;17.00;99.90;;;;;;5022117;28;20432;-89
2022/09/21 11:48:23;;;;;;;0.00;0.00;;;17.00;99.90;;;;;;5022961;28;20505;-91
2022/09/21 11:51:02;;;;;;;0.00;0.00;;;17.00;99.90;;;;;;5024519;28;20478;-91
2022/09/21 11:53:47;;;;;;;0.00;0.00;;;17.00;99.90;;;;;;5037038;28;20466;-91
2022/09/21 11:56:42;;;;;;;0.00;0.00;;;16.90;99.90;;;;;;5019674;28;20459;-91
2022/09/21 11:59:37;;;;;;;0.00;0.00;;;16.80;99.90;;;;;;5017874;28;20519;-92
2022/09/21 12:02:29;;;;;;;0.00;0.00;;;16.70;99.90;;;;;;5016413;28;20543;-91
2022/09/21 12:05:03;;;;;;;0.00;0.00;;;16.60;99.90;;;;;;5020760;28;20933;-90
2022/09/21 12:07:49;;;;;;;0.00;0.00;;;16.60;99.90;;;;;;5021276;28;20964;-91
2022/09/21 12:10:39;;;;;;;0.00;0.00;;;16.60;99.90;;;;;;5021189;28;20489;-91
2022/09/21 12:13:17;;;;;;;0.00;0.00;;;16.70;99.90;;;;;;5018086;28;20446;-91
2022/09/21 12:15:51;;;;;;;0.00;0.00;;;16.80;99.90;;;;;;5019610;28;20441;-91
2022/09/21 12:18:31;;;;;;;0.00;0.00;;;16.80;99.90;;;;;;5020572;28;20442;-91
2022/09/21 12:21:05;;;;;;;0.00;0.00;;;16.90;99.90;;;;;;5020001;28;20498;-90
2022/09/21 12:23:39;;;;;;;0.00;0.00;;;17.00;99.90;;;;;;5020738;28;20451;-90
2022/09/21 12:26:10;;;;;;;0.00;0.00;;;17.20;99.90;;;;;;5021727;28;20434;-92
2022/09/21 12:28:44;;;;;;;0.00;0.00;;;17.30;99.90;;;;;;5023882;28;20539;-91
2022/09/21 12:31:19;;;;;;;0.00;0.00;;;17.40;99.90;;;;;;5024348;28;20497;-91
2022/09/21 12:33:51;;;;;;;0.00;0.00;;;17.40;99.90;;;;;;5024734;28;20475;-90
2022/09/21 12:36:25;;;;;;;0.00;0.00;;;17.50;99.90;;;;;;5023019;28;20449;-89
2022/09/21 12:38:59;;;;;;;0.00;0.00;;;17.50;99.90;;;;;;5022766;28;20452;-90
2022/09/21 12:41:33;;;;;;;0.00;0.00;;;17.50;99.90;;;;;;5022927;28;20476;-89
2022/09/21 12:44:13;;;;;;;0.00;0.00;;;17.50;99.90;;;;;;5023676;28;20806;-88
2022/09/21 12:46:46;;;;;;;0.00;0.00;;;17.50;99.90;;;;;;5022056;28;20466;-90
2022/09/21 12:49:21;;;;;;;0.00;0.00;;;17.50;99.90;;;;;;5023038;28;20489;-89
2022/09/21 12:51:53;;;;;;;0.00;0.00;;;17.50;99.90;;;;;;5022941;28;20492;-90
2022/09/21 12:54:36;;;;;;;0.00;0.00;;;17.50;99.90;;;;;;5016201;28;20981;-91
2022/09/21 12:57:15;;;;;;;0.00;0.00;;;17.60;99.90;;;;;;5018536;28;20437;-89
2022/09/21 13:00:07;;;;;;;0.00;0.00;;;17.60;99.90;;;;;;5014812;28;20472;-90
2022/09/21 13:02:41;;;;;;;0.00;0.00;;;17.70;99.90;;;;;;5022762;28;20483;-91
2022/09/21 13:05:16;;;;;;;0.00;0.00;;;17.70;99.90;;;;;;5024471;28;20444;-89
2022/09/21 13:07:59;;;;;;;0.00;0.00;;;17.70;99.90;;;;;;5023350;28;20461;-90
2022/09/21 13:10:39;;;;;;;0.00;0.00;;;17.70;99.70;;;;;;5023968;28;20476;-91
2022/09/21 13:13:18;;;;;;;0.00;0.00;;;17.70;99.90;;;;;;5023331;28;20474;-90
2022/09/21 13:15:49;;;;;;;0.00;0.00;;;17.60;99.90;;;;;;5022597;28;20502;-90
2022/09/21 13:18:23;;;;;;;0.00;0.00;;;17.60;99.90;;;;;;5022926;28;20421;-90
2022/09/21 13:20:54;;;;;;;0.00;0.00;;;17.70;99.30;;;;;;5022882;28;20478;-89
2022/09/21 13:23:26;;;;;;;0.00;0.00;;;17.70;99.50;;;;;;5022950;28;20462;-90
2022/09/21 13:26:03;;;;;;;0.00;0.00;;;17.70;99.30;;;;;;5022517;28;20463;-90
2022/09/21 13:28:44;;;;;;;0.00;0.00;;;17.70;98.70;;;;;;5022682;28;20542;-89
2022/09/21 13:31:42;;;;;;;0.00;0.00;;;17.60;99.10;;;;;;5011506;28;20472;-92